createdAt,value
2023-02-24T00:00:45.868Z,980.04
2023-02-24T00:01:44.304Z,980.07
2023-02-24T00:02:44.376Z,980.05
2023-02-24T00:03:44.303Z,980.14
2023-02-24T00:04:44.268Z,980.00
2023-02-24T00:05:44.353Z,980.05
2023-02-24T00:06:44.241Z,980.12
2023-02-24T00:07:44.266Z,980.07
2023-02-24T00:08:44.219Z,980.10
2023-02-24T00:09:44.224Z,980.07
2023-02-24T00:10:44.222Z,980.07
2023-02-24T00:11:44.231Z,980.01
2023-02-24T00:12:44.198Z,980.05
2023-02-24T00:13:44.163Z,979.99
2023-02-24T00:14:44.162Z,980.00
2023-02-24T00:15:44.140Z,980.03
2023-02-24T00:16:44.236Z,980.00
2023-02-24T00:17:44.120Z,979.97
2023-02-24T00:18:44.128Z,980.02
2023-02-24T00:19:44.132Z,979.97
2023-02-24T00:20:44.100Z,979.99
2023-02-24T00:21:44.090Z,980.00
2023-02-24T00:22:44.069Z,980.01
2023-02-24T00:23:44.080Z,979.97
2023-02-24T00:24:44.041Z,980.03
2023-02-24T00:25:44.040Z,979.96
2023-02-24T00:26:44.045Z,979.98
2023-02-24T00:27:44.010Z,980.01
2023-02-24T00:28:44.013Z,979.99
2023-02-24T00:29:44.003Z,979.92
2023-02-24T00:30:44.040Z,979.94
2023-02-24T00:31:44.264Z,979.96
2023-02-24T00:32:44.068Z,979.92
2023-02-24T00:33:43.985Z,979.90
2023-02-24T00:34:43.965Z,979.91
2023-02-24T00:35:43.938Z,979.95
2023-02-24T00:36:43.928Z,979.85
2023-02-24T00:37:43.950Z,979.88
2023-02-24T00:38:43.921Z,979.83
2023-02-24T00:39:43.902Z,979.85
2023-02-24T00:40:43.893Z,979.90
2023-02-24T00:41:43.882Z,979.88
2023-02-24T00:42:43.954Z,979.86
2023-02-24T00:43:43.864Z,979.83
2023-02-24T00:44:43.860Z,979.83
2023-02-24T00:45:43.836Z,979.82
2023-02-24T00:46:43.842Z,979.80
2023-02-24T00:47:43.826Z,979.79
2023-02-24T00:48:43.836Z,979.73
2023-02-24T00:49:43.827Z,979.73
2023-02-24T00:50:43.776Z,979.77
2023-02-24T00:51:43.780Z,979.78
2023-02-24T00:52:43.778Z,979.73
2023-02-24T00:53:43.769Z,979.78
2023-02-24T00:54:43.751Z,979.78
2023-02-24T00:55:43.756Z,979.75
2023-02-24T00:56:43.729Z,979.74
2023-02-24T00:57:43.725Z,979.71
2023-02-24T00:58:43.709Z,979.71
2023-02-24T00:59:43.686Z,979.76
2023-02-24T01:00:43.698Z,979.81
2023-02-24T01:01:43.704Z,979.81
2023-02-24T01:02:43.669Z,979.70
2023-02-24T01:03:43.688Z,979.74
2023-02-24T01:04:43.631Z,979.74
2023-02-24T01:05:43.643Z,979.81
2023-02-24T01:06:43.607Z,979.79
2023-02-24T01:07:43.652Z,979.83
2023-02-24T01:08:43.580Z,979.79
2023-02-24T01:09:43.579Z,979.84
2023-02-24T01:10:43.570Z,979.80
2023-02-24T01:11:43.579Z,979.81
2023-02-24T01:12:43.561Z,979.81
2023-02-24T01:13:43.530Z,979.84
2023-02-24T01:14:43.539Z,979.76
2023-02-24T01:15:43.550Z,979.70
2023-02-24T01:16:43.510Z,979.76
2023-02-24T01:17:43.541Z,979.66
2023-02-24T01:18:43.490Z,979.68
2023-02-24T01:19:43.480Z,979.65
2023-02-24T01:20:43.449Z,979.65
2023-02-24T01:21:43.452Z,979.69
2023-02-24T01:22:43.507Z,979.67
2023-02-24T01:23:43.431Z,979.59
2023-02-24T01:24:43.418Z,979.64
2023-02-24T01:25:44.124Z,979.60
2023-02-24T01:26:43.394Z,979.63
2023-02-24T01:27:43.422Z,979.61
2023-02-24T01:28:43.397Z,979.58
2023-02-24T01:29:43.435Z,979.59
2023-02-24T01:30:43.381Z,979.61
2023-02-24T01:31:43.530Z,979.60
2023-02-24T01:32:43.557Z,979.60
2023-02-24T01:33:43.323Z,979.60
2023-02-24T01:34:43.323Z,979.59
2023-02-24T01:35:43.307Z,979.55
2023-02-24T01:36:43.330Z,979.61
2023-02-24T01:37:43.374Z,979.59
2023-02-24T01:38:43.263Z,979.58
2023-02-24T01:39:43.267Z,979.57
2023-02-24T01:40:43.255Z,979.53
2023-02-24T01:41:43.246Z,979.45
2023-02-24T01:42:43.236Z,979.51
2023-02-24T01:43:43.227Z,979.51
2023-02-24T01:44:43.218Z,979.50
2023-02-24T01:45:43.208Z,979.48
2023-02-24T01:46:43.231Z,979.44
2023-02-24T01:47:43.179Z,979.44
2023-02-24T01:48:43.189Z,979.47
2023-02-24T01:49:43.169Z,979.41
2023-02-24T01:50:43.158Z,979.42
2023-02-24T01:51:43.130Z,979.37
2023-02-24T01:52:43.113Z,979.43
2023-02-24T01:53:43.149Z,979.46
2023-02-24T01:54:43.154Z,979.43
2023-02-24T01:55:43.118Z,979.42
2023-02-24T01:56:43.085Z,979.44
2023-02-24T01:57:43.094Z,979.39
2023-02-24T01:58:43.082Z,979.40
2023-02-24T01:59:43.063Z,979.42
2023-02-24T02:00:43.052Z,979.40
2023-02-24T02:01:43.155Z,979.42
2023-02-24T02:02:43.196Z,979.37
2023-02-24T02:03:43.039Z,979.40
2023-02-24T02:04:42.992Z,979.33
2023-02-24T02:05:42.994Z,979.35
2023-02-24T02:06:42.985Z,979.42
2023-02-24T02:07:43.010Z,979.40
2023-02-24T02:08:42.956Z,979.37
2023-02-24T02:09:42.938Z,979.36
2023-02-24T02:10:42.934Z,979.35
2023-02-24T02:11:42.924Z,979.35
2023-02-24T02:12:42.936Z,979.40
2023-02-24T02:13:43.006Z,979.35
2023-02-24T02:14:42.909Z,979.34
2023-02-24T02:15:42.896Z,979.33
2023-02-24T02:16:42.875Z,979.36
2023-02-24T02:17:42.869Z,979.30
2023-02-24T02:18:42.865Z,979.27
2023-02-24T02:19:42.838Z,979.24
2023-02-24T02:20:42.845Z,979.27
2023-02-24T02:21:42.817Z,979.17
2023-02-24T02:22:42.814Z,979.17
2023-02-24T02:23:42.797Z,979.10
2023-02-24T02:24:42.799Z,979.12
2023-02-24T02:25:42.789Z,979.16
2023-02-24T02:26:42.768Z,979.16
2023-02-24T02:27:42.776Z,979.20
2023-02-24T02:28:42.737Z,979.22
2023-02-24T02:29:42.728Z,979.19
2023-02-24T02:30:42.764Z,979.24
2023-02-24T02:31:42.941Z,979.14
2023-02-24T02:32:42.791Z,979.14
2023-02-24T02:33:42.690Z,979.19
2023-02-24T02:34:42.689Z,979.19
2023-02-24T02:35:42.670Z,979.17
2023-02-24T02:36:42.659Z,979.16
2023-02-24T02:37:42.640Z,979.15
2023-02-24T02:38:42.640Z,979.17
2023-02-24T02:39:42.639Z,979.15
2023-02-24T02:40:42.629Z,979.13
2023-02-24T02:41:42.606Z,979.07
2023-02-24T02:42:42.609Z,979.08
2023-02-24T02:43:42.589Z,979.13
2023-02-24T02:44:42.594Z,979.11
2023-02-24T02:45:42.578Z,979.10
2023-02-24T02:46:42.560Z,979.05
2023-02-24T02:47:42.528Z,979.04
2023-02-24T02:48:42.530Z,979.02
2023-02-24T02:49:42.528Z,979.05
2023-02-24T02:50:42.640Z,978.99
2023-02-24T02:51:42.510Z,979.02
2023-02-24T02:52:42.507Z,978.98
2023-02-24T02:53:42.492Z,978.95
2023-02-24T02:54:42.458Z,978.97
2023-02-24T02:55:42.446Z,978.92
2023-02-24T02:56:42.436Z,978.97
2023-02-24T02:57:42.425Z,979.00
2023-02-24T02:58:42.437Z,978.92
2023-02-24T02:59:42.398Z,978.93
2023-02-24T03:00:42.465Z,978.91
2023-02-24T03:01:42.378Z,978.90
2023-02-24T03:02:42.368Z,978.91
2023-02-24T03:03:42.364Z,978.87
2023-02-24T03:04:42.405Z,978.87
2023-02-24T03:05:42.357Z,978.87
2023-02-24T03:06:42.333Z,978.86
2023-02-24T03:07:42.322Z,978.86
2023-02-24T03:08:42.308Z,978.87
2023-02-24T03:09:42.296Z,978.87
2023-02-24T03:10:42.289Z,978.81
2023-02-24T03:11:42.288Z,978.83
2023-02-24T03:12:42.278Z,978.84
2023-02-24T03:13:42.257Z,978.79
2023-02-24T03:14:42.240Z,978.80
2023-02-24T03:15:42.263Z,978.66
2023-02-24T03:16:42.237Z,978.79
2023-02-24T03:17:42.233Z,978.68
2023-02-24T03:18:42.202Z,978.66
2023-02-24T03:19:42.201Z,978.67
2023-02-24T03:20:42.188Z,978.67
2023-02-24T03:21:42.200Z,978.68
2023-02-24T03:22:42.161Z,978.66
2023-02-24T03:23:42.142Z,978.59
2023-02-24T03:24:42.157Z,978.61
2023-02-24T03:25:42.125Z,978.65
2023-02-24T03:26:42.121Z,978.67
2023-02-24T03:27:42.122Z,978.61
2023-02-24T03:28:42.093Z,978.60
2023-02-24T03:29:42.093Z,978.57
2023-02-24T03:30:42.110Z,978.57
2023-02-24T03:31:42.148Z,978.59
2023-02-24T03:32:42.115Z,978.58
2023-02-24T03:33:42.120Z,978.55
2023-02-24T03:34:42.033Z,978.51
2023-02-24T03:35:42.028Z,978.54
2023-02-24T03:36:42.014Z,978.56
2023-02-24T03:37:42.005Z,978.61
2023-02-24T03:38:41.985Z,978.61
2023-02-24T03:39:42.013Z,978.60
2023-02-24T03:40:41.969Z,978.64
2023-02-24T03:41:41.974Z,978.59
2023-02-24T03:42:41.950Z,978.56
2023-02-24T03:43:41.957Z,978.58
2023-02-24T03:44:41.928Z,978.58
2023-02-24T03:45:42.082Z,978.59
2023-02-24T03:46:41.906Z,978.57
2023-02-24T03:47:42.016Z,978.59
2023-02-24T03:48:41.895Z,978.58
2023-02-24T03:49:41.877Z,978.59
2023-02-24T03:50:41.886Z,978.62
2023-02-24T03:51:41.858Z,978.60
2023-02-24T03:52:41.837Z,978.62
2023-02-24T03:53:41.841Z,978.64
2023-02-24T03:54:41.816Z,978.63
2023-02-24T03:55:41.814Z,978.61
2023-02-24T03:56:41.816Z,978.67
2023-02-24T03:57:41.787Z,978.61
2023-02-24T03:58:41.780Z,978.61
2023-02-24T03:59:41.774Z,978.59
2023-02-24T04:00:41.754Z,978.64
2023-02-24T04:01:41.759Z,978.63
2023-02-24T04:02:41.759Z,978.62
2023-02-24T04:03:41.729Z,978.62
2023-02-24T04:04:41.793Z,978.63
2023-02-24T04:05:41.712Z,978.60
2023-02-24T04:06:41.719Z,978.65
2023-02-24T04:07:41.698Z,978.60
2023-02-24T04:08:41.667Z,978.67
2023-02-24T04:09:41.658Z,978.64
2023-02-24T04:10:41.670Z,978.62
2023-02-24T04:11:41.648Z,978.66
2023-02-24T04:12:41.715Z,978.66
2023-02-24T04:13:41.630Z,978.62
2023-02-24T04:14:41.598Z,978.67
2023-02-24T04:15:41.653Z,978.63
2023-02-24T04:16:41.579Z,978.67
2023-02-24T04:17:41.579Z,978.65
2023-02-24T04:18:41.769Z,978.66
2023-02-24T04:19:41.573Z,978.68
2023-02-24T04:20:41.560Z,978.63
2023-02-24T04:21:41.532Z,978.62
2023-02-24T04:22:41.540Z,978.58
2023-02-24T04:23:41.510Z,978.62
2023-02-24T04:24:41.497Z,978.62
2023-02-24T04:25:41.500Z,978.61
2023-02-24T04:26:41.471Z,978.60
2023-02-24T04:27:41.480Z,978.50
2023-02-24T04:28:41.456Z,978.58
2023-02-24T04:29:41.473Z,978.48
2023-02-24T04:30:41.554Z,978.56
2023-02-24T04:31:41.605Z,978.53
2023-02-24T04:32:41.474Z,978.55
2023-02-24T04:33:41.404Z,978.55
2023-02-24T04:34:41.413Z,978.51
2023-02-24T04:35:41.383Z,978.55
2023-02-24T04:36:41.372Z,978.56
2023-02-24T04:37:41.364Z,978.54
2023-02-24T04:38:41.366Z,978.54
2023-02-24T04:39:41.355Z,978.49
2023-02-24T04:40:41.325Z,978.46
2023-02-24T04:41:41.313Z,978.55
2023-02-24T04:42:41.309Z,978.52
2023-02-24T04:43:41.326Z,978.51
2023-02-24T04:44:41.314Z,978.45
2023-02-24T04:45:41.275Z,978.46
2023-02-24T04:46:41.338Z,978.48
2023-02-24T04:47:41.256Z,978.44
2023-02-24T04:48:41.257Z,978.50
2023-02-24T04:49:41.255Z,978.44
2023-02-24T04:50:42.352Z,978.41
2023-02-24T04:51:41.226Z,978.37
2023-02-24T04:52:41.197Z,978.40
2023-02-24T04:53:41.197Z,978.40
2023-02-24T04:54:41.174Z,978.36
2023-02-24T04:55:41.189Z,978.33
2023-02-24T04:56:41.166Z,978.34
2023-02-24T04:57:41.156Z,978.29
2023-02-24T04:58:41.157Z,978.28
2023-02-24T04:59:41.128Z,978.27
2023-02-24T05:00:41.130Z,978.29
2023-02-24T05:01:41.114Z,978.23
2023-02-24T05:02:41.110Z,978.22
2023-02-24T05:03:41.118Z,978.28
2023-02-24T05:04:41.168Z,978.24
2023-02-24T05:05:41.060Z,978.20
2023-02-24T05:06:41.053Z,978.19
2023-02-24T05:07:41.080Z,978.19
2023-02-24T05:08:41.032Z,978.15
2023-02-24T05:09:41.029Z,978.20
2023-02-24T05:10:41.012Z,978.14
2023-02-24T05:11:41.021Z,978.18
2023-02-24T05:12:40.992Z,978.13
2023-02-24T05:13:40.982Z,978.12
2023-02-24T05:14:40.983Z,978.11
2023-02-24T05:15:40.967Z,978.13
2023-02-24T05:16:41.066Z,978.12
2023-02-24T05:17:40.943Z,978.08
2023-02-24T05:18:40.943Z,977.98
2023-02-24T05:19:40.925Z,978.02
2023-02-24T05:20:40.905Z,977.89
2023-02-24T05:21:40.898Z,977.92
2023-02-24T05:22:40.896Z,977.91
2023-02-24T05:23:40.876Z,977.91
2023-02-24T05:24:40.867Z,977.95
2023-02-24T05:25:40.866Z,977.88
2023-02-24T05:26:40.848Z,977.87
2023-02-24T05:27:40.836Z,977.85
2023-02-24T05:28:41.028Z,977.89
2023-02-24T05:29:40.806Z,977.78
2023-02-24T05:30:40.870Z,977.78
2023-02-24T05:31:40.891Z,977.78
2023-02-24T05:32:40.845Z,977.85
2023-02-24T05:33:40.788Z,977.86
2023-02-24T05:34:40.760Z,977.80
2023-02-24T05:35:40.769Z,977.85
2023-02-24T05:36:40.828Z,977.83
2023-02-24T05:37:41.437Z,977.79
2023-02-24T05:38:40.731Z,977.81
2023-02-24T05:39:40.715Z,977.74
2023-02-24T05:40:40.698Z,977.80
2023-02-24T05:41:40.686Z,977.78
2023-02-24T05:42:40.667Z,977.77
2023-02-24T05:43:40.668Z,977.75
2023-02-24T05:44:40.648Z,977.72
2023-02-24T05:45:40.636Z,977.74
2023-02-24T05:46:40.702Z,977.72
2023-02-24T05:47:40.614Z,977.74
2023-02-24T05:48:40.606Z,977.65
2023-02-24T05:49:40.636Z,977.67
2023-02-24T05:50:40.588Z,977.76
2023-02-24T05:51:40.576Z,977.68
2023-02-24T05:52:40.562Z,977.69
2023-02-24T05:53:40.557Z,977.63
2023-02-24T05:54:40.558Z,977.63
2023-02-24T05:55:40.537Z,977.66
2023-02-24T05:56:40.514Z,977.65
2023-02-24T05:57:40.576Z,977.66
2023-02-24T05:58:40.502Z,977.68
2023-02-24T05:59:40.493Z,977.63
2023-02-24T06:00:40.476Z,977.64
2023-02-24T06:01:40.478Z,977.64
2023-02-24T06:02:40.488Z,977.58
2023-02-24T06:03:40.437Z,977.61
2023-02-24T06:04:40.455Z,977.58
2023-02-24T06:05:40.421Z,977.64
2023-02-24T06:06:40.409Z,977.64
2023-02-24T06:07:40.422Z,977.65
2023-02-24T06:08:40.388Z,977.63
2023-02-24T06:09:40.389Z,977.63
2023-02-24T06:10:40.376Z,977.61
2023-02-24T06:11:40.452Z,977.62
2023-02-24T06:12:40.351Z,977.58
2023-02-24T06:13:40.340Z,977.61
2023-02-24T06:14:40.338Z,977.59
2023-02-24T06:15:40.328Z,977.56
2023-02-24T06:16:40.379Z,977.57
2023-02-24T06:17:40.308Z,977.57
2023-02-24T06:18:40.279Z,977.56
2023-02-24T06:19:40.280Z,977.56
2023-02-24T06:20:40.287Z,977.54
2023-02-24T06:21:40.260Z,977.51
2023-02-24T06:22:40.240Z,977.55
2023-02-24T06:23:40.251Z,977.57
2023-02-24T06:24:40.221Z,977.52
2023-02-24T06:25:40.217Z,977.55
2023-02-24T06:26:40.199Z,977.57
2023-02-24T06:27:40.211Z,977.55
2023-02-24T06:28:40.174Z,977.48
2023-02-24T06:29:40.171Z,977.55
2023-02-24T06:30:40.201Z,977.54
2023-02-24T06:31:40.326Z,977.52
2023-02-24T06:32:40.359Z,977.53
2023-02-24T06:33:40.133Z,977.53
2023-02-24T06:34:40.117Z,977.53
2023-02-24T06:35:40.115Z,977.53
2023-02-24T06:36:40.101Z,977.53
2023-02-24T06:37:40.083Z,977.49
2023-02-24T06:38:40.087Z,977.53
2023-02-24T06:39:40.076Z,977.48
2023-02-24T06:40:40.046Z,977.50
2023-02-24T06:41:40.048Z,977.46
2023-02-24T06:42:40.056Z,977.45
2023-02-24T06:43:40.040Z,977.44
2023-02-24T06:44:40.030Z,977.47
2023-02-24T06:45:40.041Z,977.46
2023-02-24T06:46:39.989Z,977.43
2023-02-24T06:47:39.978Z,977.47
2023-02-24T06:48:39.967Z,977.49
2023-02-24T06:49:39.976Z,977.47
2023-02-24T06:50:41.982Z,977.51
2023-02-24T06:51:39.941Z,977.47
2023-02-24T06:52:39.927Z,977.44
2023-02-24T06:53:39.920Z,977.43
2023-02-24T06:54:39.919Z,977.42
2023-02-24T06:55:39.901Z,977.44
2023-02-24T06:56:39.881Z,977.39
2023-02-24T06:57:39.947Z,977.38
2023-02-24T06:58:39.868Z,977.36
2023-02-24T06:59:39.876Z,977.38
2023-02-24T07:00:39.888Z,977.38
2023-02-24T07:01:39.851Z,977.38
2023-02-24T07:02:39.834Z,977.41
2023-02-24T07:03:39.826Z,977.42
2023-02-24T07:04:39.874Z,977.35
2023-02-24T07:05:39.810Z,977.37
2023-02-24T07:06:39.771Z,977.38
2023-02-24T07:07:39.771Z,977.33
2023-02-24T07:08:39.810Z,977.37
2023-02-24T07:09:39.760Z,977.41
2023-02-24T07:10:39.731Z,977.40
2023-02-24T07:11:39.722Z,977.40
2023-02-24T07:12:39.730Z,977.40
2023-02-24T07:13:39.706Z,977.41
2023-02-24T07:14:39.708Z,977.39
2023-02-24T07:15:39.689Z,977.37
2023-02-24T07:16:39.688Z,977.38
2023-02-24T07:17:39.662Z,977.37
2023-02-24T07:18:39.644Z,977.39
2023-02-24T07:19:39.663Z,977.37
2023-02-24T07:20:39.621Z,977.37
2023-02-24T07:21:39.710Z,977.32
2023-02-24T07:22:39.604Z,977.38
2023-02-24T07:23:39.592Z,977.34
2023-02-24T07:24:39.659Z,977.31
2023-02-24T07:25:39.592Z,977.30
2023-02-24T07:26:39.564Z,977.27
2023-02-24T07:27:39.555Z,977.27
2023-02-24T07:28:39.533Z,977.26
2023-02-24T07:29:39.535Z,977.27
2023-02-24T07:30:39.614Z,977.29
2023-02-24T07:31:39.759Z,977.30
2023-02-24T07:32:39.552Z,977.28
2023-02-24T07:33:39.494Z,977.29
2023-02-24T07:34:39.479Z,977.30
2023-02-24T07:35:41.248Z,977.23
2023-02-24T07:36:39.454Z,977.20
2023-02-24T07:37:39.466Z,977.26
2023-02-24T07:38:39.433Z,977.26
2023-02-24T07:39:39.694Z,977.24
2023-02-24T07:40:39.403Z,977.22
2023-02-24T07:41:39.404Z,977.22
2023-02-24T07:42:39.384Z,977.21
2023-02-24T07:43:39.393Z,977.24
2023-02-24T07:44:39.387Z,977.24
2023-02-24T07:45:39.419Z,977.21
2023-02-24T07:46:39.344Z,977.31
2023-02-24T07:47:39.335Z,977.23
2023-02-24T07:48:39.335Z,977.22
2023-02-24T07:49:39.344Z,977.24
2023-02-24T07:50:39.304Z,977.23
2023-02-24T07:51:39.295Z,977.23
2023-02-24T07:52:39.282Z,977.28
2023-02-24T07:53:39.273Z,977.23
2023-02-24T07:54:39.550Z,977.24
2023-02-24T07:55:39.271Z,977.20
2023-02-24T07:56:39.245Z,977.14
2023-02-24T07:57:39.231Z,977.11
2023-02-24T07:58:39.224Z,977.16
2023-02-24T07:59:39.205Z,977.13
2023-02-24T08:00:39.254Z,977.09
2023-02-24T08:01:39.273Z,977.14
2023-02-24T08:02:39.205Z,977.16
2023-02-24T08:03:39.166Z,977.13
2023-02-24T08:04:39.186Z,977.09
2023-02-24T08:05:39.173Z,977.14
2023-02-24T08:06:39.142Z,977.14
2023-02-24T08:07:39.125Z,977.12
2023-02-24T08:08:39.120Z,977.08
2023-02-24T08:09:39.096Z,977.04
2023-02-24T08:10:39.111Z,977.07
2023-02-24T08:11:39.107Z,977.05
2023-02-24T08:12:39.081Z,977.06
2023-02-24T08:13:39.056Z,977.02
2023-02-24T08:14:39.056Z,977.02
2023-02-24T08:15:39.059Z,976.99
2023-02-24T08:16:39.029Z,976.99
2023-02-24T08:17:39.018Z,976.99
2023-02-24T08:18:39.005Z,977.00
2023-02-24T08:19:39.024Z,977.04
2023-02-24T08:20:38.978Z,977.00
2023-02-24T08:21:38.971Z,977.01
2023-02-24T08:22:38.967Z,977.03
2023-02-24T08:23:38.948Z,977.05
2023-02-24T08:24:38.947Z,977.01
2023-02-24T08:25:38.929Z,977.06
2023-02-24T08:26:38.947Z,977.03
2023-02-24T08:27:39.008Z,977.04
2023-02-24T08:28:38.909Z,976.99
2023-02-24T08:29:38.898Z,977.05
2023-02-24T08:30:39.253Z,977.02
2023-02-24T08:31:39.089Z,976.96
2023-02-24T08:32:39.037Z,976.97
2023-02-24T08:33:38.863Z,977.01
2023-02-24T08:34:38.840Z,976.94
2023-02-24T08:35:38.848Z,976.95
2023-02-24T08:36:38.811Z,976.95
2023-02-24T08:37:38.808Z,976.92
2023-02-24T08:38:38.791Z,976.87
2023-02-24T08:39:38.816Z,976.87
2023-02-24T08:40:38.808Z,976.87
2023-02-24T08:41:38.761Z,976.87
2023-02-24T08:42:38.770Z,976.90
2023-02-24T08:43:38.743Z,976.85
2023-02-24T08:44:40.256Z,976.81
2023-02-24T08:45:38.716Z,976.75
2023-02-24T08:46:38.776Z,976.80
2023-02-24T08:47:38.723Z,976.79
2023-02-24T08:48:38.770Z,976.81
2023-02-24T08:49:38.680Z,976.74
2023-02-24T08:50:38.681Z,976.71
2023-02-24T08:51:38.682Z,976.71
2023-02-24T08:52:38.648Z,976.69
2023-02-24T08:53:38.639Z,976.71
2023-02-24T08:54:38.632Z,976.79
2023-02-24T08:55:38.607Z,976.73
2023-02-24T08:56:38.628Z,976.69
2023-02-24T08:57:38.602Z,976.67
2023-02-24T08:58:38.590Z,976.66
2023-02-24T08:59:38.880Z,976.62
2023-02-24T09:00:38.655Z,976.56
2023-02-24T09:01:38.560Z,976.60
2023-02-24T09:02:38.549Z,976.64
2023-02-24T09:03:38.533Z,976.59
2023-02-24T09:04:38.572Z,976.57
2023-02-24T09:05:38.514Z,976.66
2023-02-24T09:06:38.501Z,976.62
2023-02-24T09:07:38.491Z,976.72
2023-02-24T09:08:38.564Z,976.65
2023-02-24T09:09:38.478Z,976.67
2023-02-24T09:10:39.906Z,976.58
2023-02-24T09:11:38.443Z,976.67
2023-02-24T09:12:38.459Z,976.67
2023-02-24T09:13:38.424Z,976.60
2023-02-24T09:14:38.415Z,976.61
2023-02-24T09:15:38.424Z,976.46
2023-02-24T09:16:38.428Z,976.60
2023-02-24T09:17:38.389Z,976.53
2023-02-24T09:18:38.460Z,976.49
2023-02-24T09:19:38.367Z,976.53
2023-02-24T09:20:38.373Z,976.49
2023-02-24T09:21:38.335Z,976.51
2023-02-24T09:22:38.345Z,976.48
2023-02-24T09:23:38.318Z,976.46
2023-02-24T09:24:38.324Z,976.47
2023-02-24T09:25:38.294Z,976.42
2023-02-24T09:26:38.297Z,976.41
2023-02-24T09:27:38.277Z,976.43
2023-02-24T09:28:38.357Z,976.40
2023-02-24T09:29:38.256Z,976.38
2023-02-24T09:30:38.449Z,976.38
2023-02-24T09:31:38.417Z,976.41
2023-02-24T09:32:38.350Z,976.40
2023-02-24T09:33:38.212Z,976.44
2023-02-24T09:34:38.223Z,976.41
2023-02-24T09:35:38.183Z,976.40
2023-02-24T09:36:38.200Z,976.38
2023-02-24T09:37:38.179Z,976.46
2023-02-24T09:38:38.158Z,976.44
2023-02-24T09:39:38.153Z,976.37
2023-02-24T09:40:38.136Z,976.39
2023-02-24T09:41:38.149Z,976.39
2023-02-24T09:42:38.117Z,976.33
2023-02-24T09:43:38.102Z,976.32
2023-02-24T09:44:38.103Z,976.35
2023-02-24T09:45:38.350Z,976.36
2023-02-24T09:46:38.147Z,976.27
2023-02-24T09:47:38.078Z,976.25
2023-02-24T09:48:38.049Z,976.25
2023-02-24T09:49:38.039Z,976.26
2023-02-24T09:50:59.725Z,976.19
2023-02-24T09:51:39.009Z,976.22
2023-02-24T09:52:38.020Z,976.26
2023-02-24T09:53:40.749Z,976.24
2023-02-24T09:54:37.991Z,976.20
2023-02-24T09:55:37.989Z,976.17
2023-02-24T09:56:37.973Z,976.20
2023-02-24T09:57:37.998Z,976.18
2023-02-24T09:58:43.795Z,976.14
2023-02-24T09:59:38.930Z,976.09
2023-02-24T10:00:37.954Z,976.12
2023-02-24T10:01:37.949Z,976.11
2023-02-24T10:02:38.000Z,976.09
2023-02-24T10:03:37.902Z,976.11
2023-02-24T10:04:37.880Z,976.17
2023-02-24T10:05:37.872Z,976.16
2023-02-24T10:06:37.861Z,976.13
2023-02-24T10:07:37.863Z,976.12
2023-02-24T10:08:37.844Z,976.11
2023-02-24T10:09:37.825Z,976.13
2023-02-24T10:10:37.843Z,976.09
2023-02-24T10:11:37.802Z,976.11
2023-02-24T10:12:37.813Z,976.10
2023-02-24T10:13:37.782Z,976.09
2023-02-24T10:14:43.496Z,976.10
2023-02-24T10:15:38.778Z,976.09
2023-02-24T10:16:37.814Z,976.09
2023-02-24T10:17:37.768Z,976.09
2023-02-24T10:18:37.725Z,976.01
2023-02-24T10:19:37.715Z,976.07
2023-02-24T10:20:37.761Z,976.04
2023-02-24T10:21:37.705Z,976.03
2023-02-24T10:22:37.696Z,976.03
2023-02-24T10:23:37.673Z,976.05
2023-02-24T10:24:37.666Z,975.98
2023-02-24T10:25:37.675Z,976.03
2023-02-24T10:26:39.212Z,976.05
2023-02-24T10:27:37.639Z,976.01
2023-02-24T10:28:37.636Z,976.02
2023-02-24T10:29:37.645Z,976.05
2023-02-24T10:30:37.678Z,976.08
2023-02-24T10:31:37.763Z,976.03
2023-02-24T10:32:37.662Z,976.03
2023-02-24T10:33:37.585Z,976.05
2023-02-24T10:34:37.568Z,976.05
2023-02-24T10:35:37.553Z,976.06
2023-02-24T10:36:37.540Z,976.00
2023-02-24T10:37:37.528Z,976.07
2023-02-24T10:38:37.540Z,976.01
2023-02-24T10:39:37.512Z,976.03
2023-02-24T10:40:37.500Z,975.99
2023-02-24T10:41:37.542Z,976.00
2023-02-24T10:42:37.480Z,975.94
2023-02-24T10:43:37.534Z,975.91
2023-02-24T10:44:37.459Z,975.88
2023-02-24T10:45:37.460Z,975.92
2023-02-24T10:46:42.441Z,975.89
2023-02-24T10:47:38.425Z,975.84
2023-02-24T10:48:42.017Z,975.85
2023-02-24T10:49:38.425Z,975.81
2023-02-24T10:50:39.346Z,975.83
2023-02-24T10:51:38.383Z,975.84
2023-02-24T10:52:37.404Z,975.81
2023-02-24T10:53:37.362Z,975.79
2023-02-24T10:54:37.354Z,975.82
2023-02-24T10:55:37.334Z,975.78
2023-02-24T10:56:37.351Z,975.73
2023-02-24T10:57:42.629Z,975.75
2023-02-24T10:58:38.320Z,975.74
2023-02-24T10:59:37.375Z,975.76
2023-02-24T11:00:37.293Z,975.71
2023-02-24T11:01:37.311Z,975.71
2023-02-24T11:02:37.339Z,975.65
2023-02-24T11:03:37.270Z,975.64
2023-02-24T11:04:37.263Z,975.62
2023-02-24T11:05:37.242Z,975.62
2023-02-24T11:06:37.221Z,975.61
2023-02-24T11:07:37.201Z,975.56
2023-02-24T11:08:37.201Z,975.55
2023-02-24T11:09:37.182Z,975.55
2023-02-24T11:10:37.201Z,975.57
2023-02-24T11:11:37.161Z,975.59
2023-02-24T11:12:37.160Z,975.55
2023-02-24T11:13:37.155Z,975.50
2023-02-24T11:14:37.131Z,975.50
2023-02-24T11:15:37.168Z,975.53
2023-02-24T11:16:37.102Z,975.55
2023-02-24T11:17:37.130Z,975.45
2023-02-24T11:18:37.102Z,975.51
2023-02-24T11:19:37.077Z,975.44
2023-02-24T11:20:48.444Z,975.33
2023-02-24T11:21:38.065Z,975.44
2023-02-24T11:22:37.049Z,975.50
2023-02-24T11:23:37.034Z,975.41
2023-02-24T11:24:37.053Z,975.48
2023-02-24T11:25:37.019Z,975.41
2023-02-24T11:26:37.024Z,975.34
2023-02-24T11:27:36.991Z,975.35
2023-02-24T11:28:36.982Z,975.32
2023-02-24T11:29:36.963Z,975.28
2023-02-24T11:30:37.003Z,975.24
2023-02-24T11:31:37.033Z,975.31
2023-02-24T11:32:37.094Z,975.18
2023-02-24T11:33:36.913Z,975.12
2023-02-24T11:34:36.919Z,975.10
2023-02-24T11:35:36.924Z,975.13
2023-02-24T11:36:36.906Z,975.11
2023-02-24T11:37:36.885Z,975.09
2023-02-24T11:38:36.865Z,975.10
2023-02-24T11:39:36.856Z,975.07
2023-02-24T11:40:36.856Z,974.99
2023-02-24T11:41:36.867Z,975.02
2023-02-24T11:42:36.846Z,974.99
2023-02-24T11:43:36.817Z,975.02
2023-02-24T11:44:36.812Z,974.98
2023-02-24T11:45:36.808Z,974.98
2023-02-24T11:46:36.838Z,974.97
2023-02-24T11:47:36.894Z,974.85
2023-02-24T11:48:36.760Z,974.83
2023-02-24T11:49:36.748Z,974.84
2023-02-24T11:50:36.763Z,974.76
2023-02-24T11:51:36.748Z,974.79
2023-02-24T11:52:36.721Z,974.74
2023-02-24T11:53:36.732Z,974.71
2023-02-24T11:54:36.702Z,974.70
2023-02-24T11:55:36.704Z,974.63
2023-02-24T11:56:36.699Z,974.57
2023-02-24T11:57:36.663Z,974.58
2023-02-24T11:58:36.692Z,974.47
2023-02-24T11:59:36.692Z,974.39
2023-02-24T12:00:36.646Z,974.31
2023-02-24T12:01:36.638Z,974.28
2023-02-24T12:02:36.649Z,974.19
2023-02-24T12:03:36.624Z,974.24
2023-02-24T12:04:36.602Z,974.29
2023-02-24T12:05:36.640Z,974.38
2023-02-24T12:06:36.572Z,974.38
2023-02-24T12:07:36.562Z,974.38
2023-02-24T12:08:36.551Z,974.38
2023-02-24T12:09:36.553Z,974.32
2023-02-24T12:10:36.531Z,974.34
2023-02-24T12:11:36.523Z,974.32
2023-02-24T12:12:36.510Z,974.24
2023-02-24T12:13:36.516Z,974.29
2023-02-24T12:14:36.522Z,974.26
2023-02-24T12:15:36.499Z,974.25
2023-02-24T12:16:36.553Z,974.20
2023-02-24T12:17:36.471Z,974.21
2023-02-24T12:18:36.452Z,974.13
2023-02-24T12:19:36.437Z,974.15
2023-02-24T12:20:36.435Z,974.07
2023-02-24T12:21:36.418Z,974.02
2023-02-24T12:22:36.402Z,973.96
2023-02-24T12:23:36.409Z,973.98
2023-02-24T12:24:36.395Z,973.94
2023-02-24T12:25:36.378Z,973.93
2023-02-24T12:26:37.066Z,973.93
2023-02-24T12:27:36.372Z,973.87
2023-02-24T12:28:36.336Z,973.81